Mechanicsvlle, Virginia
Current Conditions -  °F | °C
As of 10:54 AM on Sunday 25 Jan 2015 (Local Time) from KRIC Reporting Station
Broken Clouds Broken Clouds  
Wind Chill: 44°   Ceiling: 25000
Heat Index: 48°   Visibility: 10mi
Dew Point: 32°   Wind: 8mph
Humidity: 54%   Direction: 240°WSW
Pressure: 29.91"   Gusts: NA
Location:  37.634°N, 77.2585°W
Report Text: KRIC 251554Z 24007KT 10SM SCT180 BKN250 09/00 A2991 RMK AO2 SLP134 T00890000
Loading
Personal Weather Stations






























Interactive Weather Map New forecast layout! Learn more

10-Day Weather Forecast

Advertisements
Track Severe Weather on mobile